You are not logged in, Click here to log in
ICAO: KSEA Country: 美國華盛頓州大西雅圖
Latitude: 47.4502 Longitude: -122.309
Total Arrivals: 12 Total Departures: 12
Latest Arrival: DL1957 (KSLC-KSEA)ALAN. LIU Latest Departure: VX798 (KSEA-KLAX)ALAN. LIU
Scenery:
METAR : KSEA 210653Z 15007KT 10SM FEW250 18/12 A3001 RMK AO2 SLP166 T01780122

西雅圖-塔科馬國際機場SEA